createdAt,value
2022-07-29T00:01:07.723Z,16.57
2022-07-29T00:03:47.468Z,16.53
2022-07-29T00:06:15.475Z,16.53
2022-07-29T00:08:44.733Z,16.53
2022-07-29T00:11:12.721Z,16.51
2022-07-29T00:13:41.503Z,16.52
2022-07-29T00:16:09.419Z,16.51
2022-07-29T00:18:37.428Z,16.52
2022-07-29T00:21:05.466Z,16.49
2022-07-29T00:23:36.666Z,16.51
2022-07-29T00:26:06.062Z,16.49
2022-07-29T00:28:33.972Z,16.49
2022-07-29T00:31:01.746Z,16.48
2022-07-29T00:33:30.705Z,16.47
2022-07-29T00:35:57.521Z,16.46
2022-07-29T00:38:25.387Z,16.45
2022-07-29T00:40:53.499Z,16.43
2022-07-29T00:43:22.930Z,16.42
2022-07-29T00:45:50.878Z,16.39
2022-07-29T00:48:18.802Z,16.38
2022-07-29T00:50:46.677Z,16.35
2022-07-29T00:53:14.751Z,16.34
2022-07-29T00:55:42.624Z,16.32
2022-07-29T00:58:10.950Z,16.28
2022-07-29T01:00:41.871Z,16.28
2022-07-29T01:03:09.972Z,16.27
2022-07-29T01:05:49.913Z,16.24
2022-07-29T01:08:20.821Z,16.20
2022-07-29T01:10:49.915Z,16.19
2022-07-29T01:13:18.744Z,16.19
2022-07-29T01:15:52.417Z,16.18
2022-07-29T01:18:26.092Z,16.16
2022-07-29T01:21:15.204Z,16.17
2022-07-29T01:24:01.442Z,16.16
2022-07-29T01:26:47.144Z,16.18
2022-07-29T01:29:21.346Z,16.17
2022-07-29T01:32:00.541Z,16.16
2022-07-29T01:34:41.573Z,16.18
2022-07-29T01:37:17.530Z,16.20
2022-07-29T01:39:47.946Z,16.22
2022-07-29T01:42:23.027Z,16.22
2022-07-29T01:44:57.818Z,16.23
2022-07-29T01:47:31.084Z,16.23
2022-07-29T01:50:01.773Z,16.23
2022-07-29T01:52:35.829Z,16.25
2022-07-29T01:55:09.735Z,16.26
2022-07-29T01:57:40.469Z,16.28
2022-07-29T02:00:11.395Z,16.30
2022-07-29T02:02:46.290Z,16.30
2022-07-29T02:05:17.925Z,16.31
2022-07-29T02:07:48.395Z,16.32
2022-07-29T02:10:18.735Z,16.32
2022-07-29T02:12:50.937Z,16.34
2022-07-29T02:15:20.842Z,16.30
2022-07-29T02:17:58.342Z,16.30
2022-07-29T02:20:27.755Z,16.32
2022-07-29T02:22:57.329Z,16.33
2022-07-29T02:25:36.805Z,16.35
2022-07-29T02:28:07.375Z,16.35
2022-07-29T02:30:41.197Z,16.38
2022-07-29T02:33:10.636Z,16.37
2022-07-29T02:35:40.653Z,16.38
2022-07-29T02:38:27.309Z,16.38
2022-07-29T02:40:57.574Z,16.35
2022-07-29T02:43:26.809Z,16.36
2022-07-29T02:45:58.484Z,16.36
2022-07-29T02:48:34.422Z,16.35
2022-07-29T02:51:08.950Z,16.33
2022-07-29T02:53:40.990Z,16.33
2022-07-29T02:56:12.656Z,16.32
2022-07-29T02:58:43.109Z,16.31
2022-07-29T03:01:21.356Z,16.30
2022-07-29T03:03:51.317Z,16.29
2022-07-29T03:06:37.384Z,16.29
2022-07-29T03:09:12.571Z,16.28
2022-07-29T03:11:49.334Z,16.28
2022-07-29T03:14:21.004Z,16.25
2022-07-29T03:16:51.947Z,16.24
2022-07-29T03:19:21.175Z,16.21
2022-07-29T03:21:49.175Z,16.22
2022-07-29T03:24:27.691Z,16.23
2022-07-29T03:26:59.358Z,16.22
2022-07-29T03:29:34.058Z,16.20
2022-07-29T03:32:08.371Z,16.21
2022-07-29T03:34:39.734Z,16.19
2022-07-29T03:37:08.283Z,16.19
2022-07-29T03:39:42.019Z,16.19
2022-07-29T03:42:12.397Z,16.19
2022-07-29T03:44:43.592Z,16.20
2022-07-29T03:47:15.910Z,16.18
2022-07-29T03:49:46.463Z,16.18
2022-07-29T03:52:14.590Z,16.18
2022-07-29T03:54:42.670Z,16.18
2022-07-29T03:57:13.306Z,16.18
2022-07-29T03:59:42.105Z,16.17
2022-07-29T04:02:14.653Z,16.17
2022-07-29T04:04:43.414Z,16.17
2022-07-29T04:07:14.139Z,16.18
2022-07-29T04:09:41.929Z,16.18
2022-07-29T04:12:10.297Z,16.20
2022-07-29T04:14:38.305Z,16.19
2022-07-29T04:17:06.981Z,16.21
2022-07-29T04:19:36.297Z,16.23
2022-07-29T04:22:04.086Z,16.25
2022-07-29T04:24:31.865Z,16.27
2022-07-29T04:26:59.669Z,16.29
2022-07-29T04:29:27.408Z,16.30
2022-07-29T04:31:55.237Z,16.33
2022-07-29T04:34:23.005Z,16.35
2022-07-29T04:36:57.253Z,16.37
2022-07-29T04:39:25.017Z,16.38
2022-07-29T04:41:56.473Z,16.40
2022-07-29T04:44:28.829Z,16.43
2022-07-29T04:46:57.111Z,16.41
2022-07-29T04:49:25.339Z,16.41
2022-07-29T04:51:53.172Z,16.47
2022-07-29T04:54:22.260Z,16.52
2022-07-29T04:56:50.017Z,16.56
2022-07-29T04:59:17.724Z,16.60
2022-07-29T05:01:45.483Z,16.62
2022-07-29T05:04:13.783Z,16.65
2022-07-29T05:06:41.816Z,16.66
2022-07-29T05:09:09.566Z,16.69
2022-07-29T05:11:38.670Z,16.72
2022-07-29T05:14:06.418Z,16.73
2022-07-29T05:16:34.523Z,16.77
2022-07-29T05:19:02.394Z,16.80
2022-07-29T05:21:30.273Z,16.84
2022-07-29T05:23:57.967Z,16.86
2022-07-29T05:26:25.730Z,16.93
2022-07-29T05:28:55.854Z,16.96
2022-07-29T05:31:23.618Z,17.00
2022-07-29T05:33:51.364Z,17.04
2022-07-29T05:36:19.188Z,17.08
2022-07-29T05:38:46.916Z,17.14
2022-07-29T05:41:14.655Z,17.19
2022-07-29T05:43:42.608Z,17.23
2022-07-29T05:46:11.839Z,17.28
2022-07-29T05:48:39.947Z,17.31
2022-07-29T05:51:07.946Z,17.33
2022-07-29T05:53:35.655Z,17.39
2022-07-29T05:56:05.307Z,17.42
2022-07-29T05:58:33.091Z,17.44
2022-07-29T06:01:01.927Z,17.46
2022-07-29T06:03:31.207Z,17.51
2022-07-29T06:05:58.996Z,17.51
2022-07-29T06:08:26.724Z,17.53
2022-07-29T06:10:54.530Z,17.53
2022-07-29T06:13:22.305Z,17.53
2022-07-29T06:15:50.501Z,17.54
2022-07-29T06:18:18.258Z,17.53
2022-07-29T06:20:47.360Z,17.53
2022-07-29T06:23:15.209Z,17.52
2022-07-29T06:25:43.134Z,17.52
2022-07-29T06:28:11.068Z,17.54
2022-07-29T06:30:38.916Z,17.60
2022-07-29T06:33:06.725Z,17.67
2022-07-29T06:35:41.130Z,17.79
2022-07-29T06:38:33.756Z,17.94
2022-07-29T06:41:03.725Z,18.22
2022-07-29T06:43:34.879Z,18.53
2022-07-29T06:46:04.275Z,18.85
2022-07-29T06:48:32.646Z,19.22
2022-07-29T06:51:01.167Z,19.71
2022-07-29T06:53:31.309Z,20.24
2022-07-29T06:56:00.189Z,20.67
2022-07-29T06:58:28.264Z,21.06
2022-07-29T07:01:00.082Z,21.39
2022-07-29T07:03:27.933Z,21.75
2022-07-29T07:05:56.870Z,22.11
2022-07-29T07:08:25.307Z,22.32
2022-07-29T07:10:56.127Z,22.49
2022-07-29T07:13:23.906Z,22.62
2022-07-29T07:15:52.850Z,22.93
2022-07-29T07:18:21.189Z,23.46
2022-07-29T07:20:49.769Z,23.96
2022-07-29T07:23:17.703Z,24.32
2022-07-29T07:25:46.108Z,24.59
2022-07-29T07:28:15.242Z,24.78
2022-07-29T07:30:43.055Z,25.05
2022-07-29T07:33:10.932Z,25.35
2022-07-29T07:35:38.774Z,25.70
2022-07-29T07:38:07.089Z,26.17
2022-07-29T07:40:34.989Z,26.52
2022-07-29T07:43:03.021Z,26.85
2022-07-29T07:45:33.556Z,26.98
2022-07-29T07:48:01.452Z,27.07
2022-07-29T07:50:29.288Z,27.17
2022-07-29T07:52:58.904Z,27.42
2022-07-29T07:55:27.704Z,27.41
2022-07-29T07:57:55.921Z,27.38
2022-07-29T08:04:13.202Z,28.05
2022-07-29T08:06:41.106Z,28.05
2022-07-29T08:09:28.071Z,28.18
2022-07-29T08:11:57.609Z,28.41
2022-07-29T08:14:25.555Z,28.64
2022-07-29T08:16:53.339Z,28.80
2022-07-29T08:19:22.488Z,28.93
2022-07-29T08:21:53.866Z,29.07
2022-07-29T08:24:39.680Z,29.35
2022-07-29T08:27:21.300Z,29.29
2022-07-29T08:29:56.783Z,29.07
2022-07-29T08:32:50.950Z,29.04
2022-07-29T08:35:13.655Z,29.14
2022-07-29T08:37:41.491Z,29.42
2022-07-29T08:40:10.029Z,29.93
2022-07-29T08:42:38.014Z,30.31
2022-07-29T08:45:06.979Z,30.58
2022-07-29T08:47:37.089Z,30.81
2022-07-29T08:50:05.518Z,31.00
2022-07-29T08:52:38.093Z,31.12
2022-07-29T08:55:07.481Z,31.18
2022-07-29T08:57:37.123Z,31.43
2022-07-29T09:00:11.644Z,31.52
2022-07-29T09:02:43.616Z,31.33
2022-07-29T09:05:14.713Z,31.40
2022-07-29T09:07:44.804Z,31.36
2022-07-29T09:10:12.756Z,31.18
2022-07-29T09:12:40.768Z,31.31
2022-07-29T09:15:09.728Z,31.37
2022-07-29T09:17:44.609Z,31.29
2022-07-29T09:20:14.098Z,31.20
2022-07-29T09:22:43.260Z,31.15
2022-07-29T09:25:13.614Z,31.15
2022-07-29T09:27:41.372Z,31.21
2022-07-29T09:30:12.395Z,31.51
2022-07-29T09:32:54.821Z,31.62
2022-07-29T09:35:24.789Z,31.56
2022-07-29T09:37:54.344Z,31.53
2022-07-29T09:40:24.166Z,31.32
2022-07-29T09:42:53.829Z,31.29
2022-07-29T09:45:32.871Z,31.24
2022-07-29T09:48:04.257Z,30.96
2022-07-29T09:50:39.739Z,30.78
2022-07-29T09:53:10.383Z,30.62
2022-07-29T09:55:49.391Z,30.88
2022-07-29T09:58:18.396Z,31.07
2022-07-29T10:00:46.952Z,31.36
2022-07-29T10:03:16.632Z,31.74
2022-07-29T10:05:45.568Z,32.03
2022-07-29T10:08:15.171Z,32.27
2022-07-29T10:10:44.350Z,32.19
2022-07-29T10:13:16.013Z,31.74
2022-07-29T10:15:47.314Z,31.47
2022-07-29T10:18:18.121Z,31.28
2022-07-29T10:20:46.111Z,31.28
2022-07-29T10:23:15.381Z,31.47
2022-07-29T10:25:46.397Z,31.49
2022-07-29T10:28:16.669Z,31.39
2022-07-29T10:30:46.549Z,31.25
2022-07-29T10:33:32.104Z,31.05
2022-07-29T10:36:12.386Z,31.11
2022-07-29T10:38:53.312Z,31.27
2022-07-29T10:41:44.702Z,31.13
2022-07-29T10:44:19.371Z,30.94
2022-07-29T10:46:51.945Z,30.84
2022-07-29T10:49:24.876Z,30.65
2022-07-29T10:51:58.486Z,30.46
2022-07-29T10:54:46.009Z,30.53
2022-07-29T10:57:52.594Z,30.50
2022-07-29T11:00:31.920Z,30.45
2022-07-29T11:03:00.129Z,30.47
2022-07-29T11:05:39.817Z,30.27
2022-07-29T11:08:28.104Z,30.12
2022-07-29T11:11:44.089Z,30.09
2022-07-29T11:14:26.504Z,30.10
2022-07-29T11:17:06.912Z,30.03
2022-07-29T11:19:37.307Z,30.01
2022-07-29T11:22:10.688Z,29.81
2022-07-29T11:24:39.383Z,29.63
2022-07-29T11:27:20.941Z,29.67
2022-07-29T11:29:55.672Z,29.81
2022-07-29T11:32:25.178Z,29.87
2022-07-29T11:35:17.269Z,29.80
2022-07-29T11:37:52.566Z,29.57
2022-07-29T11:40:23.774Z,29.44
2022-07-29T11:42:55.208Z,29.54
2022-07-29T11:45:43.639Z,29.50
2022-07-29T11:48:31.431Z,29.43
2022-07-29T11:51:00.370Z,29.38
2022-07-29T11:53:32.870Z,29.29
2022-07-29T11:56:02.467Z,28.99
2022-07-29T11:58:31.472Z,28.77
2022-07-29T12:01:04.881Z,28.71
2022-07-29T12:03:36.415Z,28.51
2022-07-29T12:06:13.267Z,28.26
2022-07-29T12:08:44.192Z,28.03
2022-07-29T12:11:20.490Z,27.86
2022-07-29T12:13:49.617Z,27.89
2022-07-29T12:16:25.903Z,27.92
2022-07-29T12:19:02.465Z,27.87
2022-07-29T12:21:31.216Z,27.85
2022-07-29T12:24:05.777Z,27.92
2022-07-29T12:26:40.484Z,28.05
2022-07-29T12:29:14.067Z,27.94
2022-07-29T12:31:45.303Z,27.78
2022-07-29T12:34:14.353Z,27.92
2022-07-29T12:36:43.206Z,27.97
2022-07-29T12:39:12.348Z,27.93
2022-07-29T12:41:40.835Z,27.80
2022-07-29T12:44:08.703Z,27.88
2022-07-29T12:46:36.713Z,28.06
2022-07-29T12:49:06.348Z,28.18
2022-07-29T12:51:35.596Z,28.24
2022-07-29T12:54:09.510Z,28.36
2022-07-29T12:56:45.135Z,28.40
2022-07-29T12:59:14.869Z,28.42
2022-07-29T13:01:42.800Z,28.36
2022-07-29T13:04:12.096Z,28.45
2022-07-29T13:06:41.780Z,28.59
2022-07-29T13:09:14.964Z,28.74
2022-07-29T13:11:48.428Z,28.90
2022-07-29T13:14:34.173Z,28.86
2022-07-29T13:17:04.958Z,28.71
2022-07-29T13:19:41.279Z,28.79
2022-07-29T13:22:09.592Z,28.77
2022-07-29T13:24:48.175Z,28.94
2022-07-29T13:27:16.592Z,29.00
2022-07-29T13:29:44.349Z,28.90
2022-07-29T13:32:14.322Z,28.80
2022-07-29T13:34:43.452Z,28.56
2022-07-29T13:37:11.385Z,28.38
2022-07-29T13:39:39.425Z,28.45
2022-07-29T13:42:11.002Z,28.37
2022-07-29T13:44:39.217Z,28.19
2022-07-29T13:47:07.416Z,28.11
2022-07-29T13:49:35.353Z,28.12
2022-07-29T13:52:05.697Z,28.22
2022-07-29T13:54:33.423Z,28.25
2022-07-29T13:57:01.190Z,28.20
2022-07-29T13:59:28.921Z,28.13
2022-07-29T14:01:57.347Z,28.04
2022-07-29T14:04:25.289Z,28.02
2022-07-29T14:06:53.329Z,27.92
2022-07-29T14:09:22.512Z,27.92
2022-07-29T14:19:19.902Z,28.13
2022-07-29T14:26:08.777Z,28.16
2022-07-29T14:28:42.052Z,28.21
2022-07-29T14:31:09.925Z,28.11
2022-07-29T14:33:37.706Z,27.99
2022-07-29T14:36:06.111Z,27.90
2022-07-29T14:38:33.926Z,27.79
2022-07-29T14:41:01.706Z,27.69
2022-07-29T14:43:31.047Z,27.55
2022-07-29T14:46:02.090Z,27.41
2022-07-29T14:48:33.102Z,27.46
2022-07-29T14:51:04.582Z,27.39
2022-07-29T14:53:32.818Z,27.34
2022-07-29T14:56:20.880Z,27.32
2022-07-29T14:58:51.536Z,27.16
2022-07-29T15:01:19.917Z,27.10
2022-07-29T15:03:47.815Z,27.05
2022-07-29T15:06:15.647Z,26.92
2022-07-29T15:08:43.413Z,26.91
2022-07-29T15:11:11.169Z,26.99
2022-07-29T15:13:38.915Z,27.11
2022-07-29T15:16:08.599Z,27.19
2022-07-29T15:18:39.525Z,27.21
2022-07-29T15:21:08.563Z,27.25
2022-07-29T15:33:26.552Z,27.39
2022-07-29T15:37:08.429Z,27.29
2022-07-29T15:40:50.687Z,27.30
2022-07-29T15:44:32.528Z,27.14
2022-07-29T15:47:27.542Z,26.98
2022-07-29T15:49:55.396Z,26.89
2022-07-29T16:05:18.216Z,26.25
2022-07-29T16:07:45.947Z,26.19
2022-07-29T16:10:13.699Z,26.16
2022-07-29T16:12:41.828Z,26.13
2022-07-29T16:15:10.910Z,26.07
2022-07-29T16:17:38.898Z,26.03
2022-07-29T16:20:08.176Z,25.97
2022-07-29T16:22:37.243Z,25.92
2022-07-29T16:25:05.566Z,25.89
2022-07-29T16:27:37.907Z,25.76
2022-07-29T16:30:09.566Z,25.67
2022-07-29T16:32:37.186Z,25.52
2022-07-29T16:35:05.373Z,25.42
2022-07-29T16:49:29.177Z,25.03
2022-07-29T16:51:56.951Z,25.04
2022-07-29T17:33:11.078Z,23.68
2022-07-29T17:39:40.687Z,23.40
2022-07-29T17:47:42.563Z,23.19
2022-07-29T18:21:38.004Z,21.89
2022-07-29T18:32:38.032Z,21.39
2022-07-29T18:35:11.349Z,21.35
2022-07-29T18:38:00.833Z,21.27
2022-07-29T18:44:49.124Z,20.95
2022-07-29T18:47:17.142Z,20.92
2022-07-29T18:49:46.625Z,20.86
2022-07-29T18:52:14.346Z,20.78
2022-07-29T18:54:45.911Z,20.69
2022-07-29T18:57:54.920Z,20.58
2022-07-29T19:00:04.536Z,20.45
2022-07-29T19:02:32.623Z,20.36
2022-07-29T19:05:01.951Z,20.29
2022-07-29T19:07:32.013Z,20.20
2022-07-29T19:09:59.854Z,20.14
2022-07-29T19:12:27.559Z,20.06
2022-07-29T19:14:58.092Z,19.95
2022-07-29T19:17:25.940Z,19.84
2022-07-29T19:19:55.627Z,19.72
2022-07-29T19:22:26.824Z,19.61
2022-07-29T19:24:54.565Z,19.50
2022-07-29T19:27:25.886Z,19.38
2022-07-29T19:29:56.632Z,19.30
2022-07-29T19:32:32.316Z,19.21
2022-07-29T19:35:17.402Z,19.13
2022-07-29T19:37:46.486Z,19.05
2022-07-29T19:40:16.165Z,18.97
2022-07-29T19:42:44.143Z,18.89
2022-07-29T19:45:14.746Z,18.84
2022-07-29T19:47:42.484Z,18.79
2022-07-29T19:50:13.336Z,18.72
2022-07-29T19:52:41.151Z,18.64
2022-07-29T19:55:11.271Z,18.60
2022-07-29T19:57:40.997Z,18.53
2022-07-29T20:00:11.377Z,18.47
2022-07-29T20:02:40.250Z,18.42
2022-07-29T20:05:09.263Z,18.36
2022-07-29T20:07:40.269Z,18.29
2022-07-29T20:10:11.212Z,18.23
2022-07-29T20:12:39.049Z,18.18
2022-07-29T20:15:08.462Z,18.12
2022-07-29T20:17:39.922Z,18.06
2022-07-29T20:20:11.341Z,18.01
2022-07-29T20:22:41.037Z,17.94
2022-07-29T20:25:11.827Z,17.90
2022-07-29T20:27:43.849Z,17.85
2022-07-29T20:30:14.362Z,17.79
2022-07-29T20:32:42.629Z,17.75
2022-07-29T20:35:13.544Z,17.71
2022-07-29T20:37:52.564Z,17.68
2022-07-29T20:40:26.889Z,17.63
2022-07-29T20:42:54.808Z,17.58
2022-07-29T20:45:23.579Z,17.55
2022-07-29T20:47:51.866Z,17.51
2022-07-29T20:50:20.541Z,17.50
2022-07-29T20:52:51.630Z,17.45
2022-07-29T20:55:19.512Z,17.44
2022-07-29T20:57:50.738Z,17.42
2022-07-29T21:00:18.726Z,17.39
2022-07-29T21:02:46.551Z,17.38
2022-07-29T21:05:17.021Z,17.36
2022-07-29T21:07:44.883Z,17.35
2022-07-29T21:10:14.164Z,17.33
2022-07-29T21:12:42.878Z,17.30
2022-07-29T21:15:13.484Z,17.28
2022-07-29T21:17:46.798Z,17.26
2022-07-29T21:20:15.474Z,17.23
2022-07-29T21:22:43.321Z,17.20
2022-07-29T21:25:11.721Z,17.17
2022-07-29T21:27:57.146Z,17.14
2022-07-29T21:30:26.251Z,17.11
2022-07-29T21:32:54.067Z,17.09
2022-07-29T21:35:31.365Z,17.08
2022-07-29T21:38:11.695Z,17.03
2022-07-29T21:40:39.723Z,17.02
2022-07-29T21:43:07.492Z,16.99
2022-07-29T21:45:36.576Z,16.98
2022-07-29T21:48:04.438Z,16.95
2022-07-29T21:50:32.970Z,16.93
2022-07-29T21:53:00.784Z,16.91
2022-07-29T21:55:28.715Z,16.88
2022-07-29T21:57:58.972Z,16.85
2022-07-29T22:00:26.732Z,16.83
2022-07-29T22:02:56.240Z,16.79
2022-07-29T22:05:24.327Z,16.76
2022-07-29T22:07:56.361Z,16.74
2022-07-29T22:10:25.900Z,16.72
2022-07-29T22:12:55.122Z,16.68
2022-07-29T22:15:23.286Z,16.64
2022-07-29T22:17:51.194Z,16.61
2022-07-29T22:20:20.417Z,16.58
2022-07-29T22:22:48.167Z,16.54
2022-07-29T22:25:15.999Z,16.51
2022-07-29T22:27:45.008Z,16.48
2022-07-29T22:30:13.165Z,16.46
2022-07-29T22:32:41.209Z,16.42
2022-07-29T22:35:09.438Z,16.40
2022-07-29T22:37:39.101Z,16.36
2022-07-29T22:40:08.277Z,16.32
2022-07-29T22:42:36.193Z,16.28
2022-07-29T22:45:10.285Z,16.24
2022-07-29T22:47:38.767Z,16.21
2022-07-29T22:50:14.456Z,16.16
2022-07-29T22:52:43.607Z,16.14
2022-07-29T22:55:12.137Z,16.11
2022-07-29T22:57:39.932Z,16.09
2022-07-29T23:00:09.154Z,16.04
2022-07-29T23:02:37.363Z,16.02
2022-07-29T23:05:05.420Z,16.00
2022-07-29T23:07:34.470Z,15.98
2022-07-29T23:10:04.293Z,15.97
2022-07-29T23:12:32.079Z,15.94
2022-07-29T23:14:59.943Z,15.93
2022-07-29T23:17:27.724Z,15.91
2022-07-29T23:19:55.482Z,15.89
2022-07-29T23:22:23.955Z,15.85
2022-07-29T23:24:51.663Z,15.84
2022-07-29T23:27:20.730Z,15.82
2022-07-29T23:29:48.462Z,15.79
2022-07-29T23:32:16.235Z,15.78
2022-07-29T23:34:43.982Z,15.76
2022-07-29T23:37:11.891Z,15.76
2022-07-29T23:39:39.586Z,15.75
2022-07-29T23:42:07.449Z,15.74
2022-07-29T23:44:36.580Z,15.74
2022-07-29T23:47:04.635Z,15.73
2022-07-29T23:49:32.434Z,15.74
2022-07-29T23:52:00.183Z,15.74
2022-07-29T23:54:27.993Z,15.73
2022-07-29T23:56:57.631Z,15.72
2022-07-29T23:59:26.050Z,15.70
